createdAt,value
2017-06-02T00:01:14.398Z,5.72
2017-06-02T00:03:42.630Z,4.92
2017-06-02T00:06:10.858Z,4.70
2017-06-02T00:08:39.119Z,4.04
2017-06-02T00:11:07.391Z,5.68
2017-06-02T00:13:35.631Z,4.24
2017-06-02T00:16:03.859Z,5.30
2017-06-02T00:18:32.122Z,5.36
2017-06-02T00:21:00.360Z,5.96
2017-06-02T00:23:28.611Z,6.54
2017-06-02T00:25:56.830Z,6.08
2017-06-02T00:28:25.054Z,6.20
2017-06-02T00:30:53.395Z,5.36
2017-06-02T00:33:21.627Z,5.14
2017-06-02T00:35:49.850Z,5.48
2017-06-02T00:38:18.119Z,5.32
2017-06-02T00:40:46.354Z,7.74
2017-06-02T00:43:13.819Z,4.68
2017-06-02T00:45:42.127Z,5.42
2017-06-02T00:48:10.355Z,4.40
2017-06-02T00:50:38.575Z,5.64
2017-06-02T00:53:06.811Z,6.50
2017-06-02T00:55:35.118Z,6.26
2017-06-02T00:58:03.350Z,6.92
2017-06-02T01:00:31.586Z,5.56
2017-06-02T01:02:59.846Z,5.48
2017-06-02T01:05:28.087Z,7.30
2017-06-02T01:07:56.315Z,9.18
2017-06-02T01:10:24.577Z,8.20
2017-06-02T01:12:52.811Z,8.66
2017-06-02T01:15:21.043Z,7.86
2017-06-02T01:17:49.277Z,6.94
2017-06-02T01:20:17.506Z,7.08
2017-06-02T01:22:45.732Z,8.12
2017-06-02T01:25:13.966Z,6.76
2017-06-02T01:27:42.194Z,6.54
2017-06-02T01:30:10.421Z,5.60
2017-06-02T01:32:38.647Z,7.22
2017-06-02T01:35:06.915Z,5.80
2017-06-02T01:37:35.150Z,6.18
2017-06-02T01:40:03.377Z,5.54
2017-06-02T01:42:31.614Z,8.22
2017-06-02T01:44:59.914Z,5.94
2017-06-02T01:47:28.154Z,5.36
2017-06-02T01:49:56.467Z,5.80
2017-06-02T01:52:24.706Z,7.10
2017-06-02T01:54:52.935Z,5.52
2017-06-02T01:57:21.184Z,5.66
2017-06-02T01:59:49.414Z,5.74
2017-06-02T02:02:17.738Z,5.18
2017-06-02T02:04:45.972Z,6.62
2017-06-02T02:07:14.291Z,5.42
2017-06-02T02:09:42.514Z,6.20
2017-06-02T02:12:10.838Z,5.62
2017-06-02T02:14:39.111Z,5.84
2017-06-02T02:17:07.393Z,5.62
2017-06-02T02:19:35.667Z,6.48
2017-06-02T02:22:03.904Z,5.60
2017-06-02T02:24:32.222Z,5.52
2017-06-02T02:27:00.498Z,6.80
2017-06-02T02:29:28.751Z,7.02
2017-06-02T02:31:56.978Z,7.10
2017-06-02T02:34:25.212Z,7.38
2017-06-02T02:36:53.440Z,7.78
2017-06-02T02:39:21.770Z,7.22
2017-06-02T02:41:49.996Z,7.48
2017-06-02T02:44:18.224Z,7.58
2017-06-02T02:46:45.683Z,7.10
2017-06-02T02:49:13.946Z,9.36
2017-06-02T02:51:42.225Z,7.00
2017-06-02T02:54:10.455Z,6.64
2017-06-02T02:56:38.775Z,6.00
2017-06-02T02:59:07.007Z,7.02
2017-06-02T03:01:35.255Z,7.76
2017-06-02T03:04:02.718Z,8.84
2017-06-02T03:06:30.954Z,7.86
2017-06-02T03:08:59.187Z,7.60
2017-06-02T03:11:27.503Z,8.12
2017-06-02T03:13:55.739Z,8.22
2017-06-02T03:16:24.054Z,8.10
2017-06-02T03:18:52.331Z,10.90
2017-06-02T03:21:20.558Z,8.12
2017-06-02T03:23:48.882Z,8.34
2017-06-02T03:26:17.154Z,7.96
2017-06-02T03:28:45.439Z,13.84
2017-06-02T03:31:13.671Z,9.72
2017-06-02T03:33:41.984Z,8.54
2017-06-02T03:36:10.260Z,8.40
2017-06-02T03:38:38.502Z,8.12
2017-06-02T03:41:06.737Z,6.76
2017-06-02T03:43:35.086Z,8.38
2017-06-02T03:46:03.359Z,7.70
2017-06-02T03:48:31.636Z,7.96
2017-06-02T03:50:59.908Z,8.46
2017-06-02T03:53:27.383Z,9.14
2017-06-02T03:55:55.614Z,7.62
2017-06-02T03:58:23.838Z,7.84
2017-06-02T04:00:52.066Z,7.80
2017-06-02T04:03:20.372Z,7.98
2017-06-02T04:05:48.638Z,7.28
2017-06-02T04:08:16.874Z,7.62
2017-06-02T04:10:45.115Z,7.40
2017-06-02T04:13:13.364Z,7.80
2017-06-02T04:15:41.599Z,8.26
2017-06-02T04:18:09.826Z,7.52
2017-06-02T04:20:38.087Z,8.28
2017-06-02T04:23:06.315Z,8.64
2017-06-02T04:25:34.631Z,7.56
2017-06-02T04:28:02.914Z,9.02
2017-06-02T04:30:31.167Z,7.92
2017-06-02T04:32:59.390Z,7.58
2017-06-02T04:35:27.637Z,8.12
2017-06-02T04:37:55.911Z,7.76
2017-06-02T04:40:24.191Z,8.24
2017-06-02T04:42:52.424Z,8.18
2017-06-02T04:45:20.653Z,7.56
2017-06-02T04:47:48.910Z,8.20
2017-06-02T04:50:17.199Z,6.74
2017-06-02T04:52:45.466Z,6.64
2017-06-02T04:55:13.694Z,7.32
2017-06-02T04:57:42.015Z,5.68
2017-06-02T05:00:10.241Z,7.10
2017-06-02T05:02:38.474Z,6.64
2017-06-02T05:05:06.703Z,8.34
2017-06-02T05:07:35.011Z,7.34
2017-06-02T05:10:03.295Z,5.74
2017-06-02T05:12:31.526Z,5.30
2017-06-02T05:14:59.759Z,6.28
2017-06-02T05:17:27.978Z,5.76
2017-06-02T05:19:56.209Z,7.12
2017-06-02T05:22:24.441Z,6.02
2017-06-02T05:24:52.670Z,5.92
2017-06-02T05:27:21.012Z,4.54
2017-06-02T05:29:49.234Z,4.78
2017-06-02T05:32:17.458Z,4.32
2017-06-02T05:34:45.730Z,5.22
2017-06-02T05:37:13.962Z,3.94
2017-06-02T05:39:41.426Z,5.58
2017-06-02T05:42:09.739Z,4.92
2017-06-02T05:44:37.968Z,6.00
2017-06-02T07:32:37.886Z,9.72
2017-06-02T07:35:06.126Z,10.96
2017-06-02T07:37:34.352Z,9.66
2017-06-02T07:40:02.592Z,8.44
2017-06-02T07:42:30.890Z,7.96
2017-06-02T07:44:59.155Z,9.54
2017-06-02T07:47:26.612Z,7.30
2017-06-02T07:49:54.835Z,8.78
2017-06-02T07:52:23.054Z,7.74
2017-06-02T07:54:51.288Z,9.16
2017-06-02T07:57:19.615Z,7.62
2017-06-02T07:59:47.846Z,7.82
2017-06-02T08:02:16.171Z,11.78
2017-06-02T08:04:44.405Z,12.56
2017-06-02T08:07:12.638Z,7.26
2017-06-02T08:09:40.862Z,6.66
2017-06-02T08:12:09.103Z,6.40
2017-06-02T08:14:37.328Z,7.16
2017-06-02T08:17:05.569Z,6.52
2017-06-02T08:19:33.794Z,5.58
2017-06-02T08:22:02.027Z,7.60
2017-06-02T08:24:30.339Z,6.90
2017-06-02T08:26:58.579Z,7.60
2017-06-02T08:29:26.807Z,10.76
2017-06-02T08:31:55.067Z,6.24
2017-06-02T08:34:23.295Z,6.80
2017-06-02T08:36:50.799Z,6.58
2017-06-02T08:39:19.043Z,6.84
2017-06-02T08:41:47.264Z,8.98
2017-06-02T08:44:15.503Z,6.18
2017-06-02T08:46:43.727Z,5.98
2017-06-02T08:49:11.962Z,6.30
2017-06-02T08:51:40.195Z,6.54
2017-06-02T08:54:08.431Z,6.82
2017-06-02T08:56:36.651Z,6.90
2017-06-02T08:59:04.891Z,9.10
2017-06-02T09:01:33.142Z,5.42
2017-06-02T09:04:01.415Z,5.14
2017-06-02T09:06:29.646Z,5.34
2017-06-02T09:08:57.876Z,7.80
2017-06-02T09:11:26.107Z,6.00
2017-06-02T09:13:54.327Z,5.56
2017-06-02T09:16:22.562Z,6.04
2017-06-02T09:18:50.811Z,8.20
2017-06-02T09:21:19.055Z,6.60
2017-06-02T09:23:47.312Z,9.04
2017-06-02T09:26:15.595Z,4.62
2017-06-02T09:28:43.817Z,4.06
2017-06-02T09:31:12.055Z,6.86
2017-06-02T09:33:40.291Z,6.12
2017-06-02T09:36:08.523Z,8.46
2017-06-02T09:38:36.859Z,5.98
2017-06-02T09:41:05.103Z,5.52
2017-06-02T09:43:33.323Z,4.98
2017-06-02T09:46:01.575Z,6.68
2017-06-02T09:48:29.807Z,8.14
2017-06-02T09:50:58.038Z,6.30
2017-06-02T09:53:26.269Z,5.30
2017-06-02T09:55:54.490Z,5.12
2017-06-02T09:58:22.730Z,9.08
2017-06-02T10:00:50.955Z,6.34
2017-06-02T10:03:19.303Z,6.44
2017-06-02T10:05:47.522Z,5.96
2017-06-02T10:08:15.861Z,10.92
2017-06-02T10:10:44.135Z,7.10
2017-06-02T10:13:12.371Z,6.38
2017-06-02T10:15:40.684Z,7.94
2017-06-02T10:18:08.923Z,5.90
2017-06-02T10:20:37.149Z,5.30
2017-06-02T10:23:05.391Z,4.56
2017-06-02T10:25:33.615Z,4.74
2017-06-02T10:28:01.858Z,5.38
2017-06-02T10:30:30.091Z,5.36
2017-06-02T10:32:58.407Z,4.20
2017-06-02T10:35:26.684Z,4.82
2017-06-02T10:37:54.911Z,3.42
2017-06-02T10:40:23.150Z,4.00
2017-06-02T10:42:51.373Z,2.92
2017-06-02T10:45:19.679Z,3.14
2017-06-02T10:47:47.915Z,3.60
2017-06-02T10:50:16.223Z,3.28
2017-06-02T10:52:44.502Z,3.76
2017-06-02T10:55:12.763Z,3.02
2017-06-02T10:57:41.055Z,2.96
2017-06-02T11:00:09.292Z,2.64
2017-06-02T11:02:37.615Z,3.16
2017-06-02T11:05:05.883Z,5.26
2017-06-02T11:07:34.159Z,2.50
2017-06-02T11:10:02.396Z,3.50
2017-06-02T11:12:30.627Z,2.62
2017-06-02T11:14:58.857Z,2.40
2017-06-02T11:17:27.150Z,2.70
2017-06-02T11:19:55.432Z,2.62
2017-06-02T11:22:23.666Z,3.58
2017-06-02T11:24:51.895Z,3.76
2017-06-02T11:27:20.143Z,4.78
2017-06-02T11:29:48.432Z,2.64
2017-06-02T11:32:16.672Z,2.98
2017-06-02T11:34:44.987Z,2.24
2017-06-02T11:37:13.223Z,2.78
2017-06-02T11:39:41.447Z,3.00
2017-06-02T11:42:09.697Z,2.80
2017-06-02T11:44:37.922Z,2.58
2017-06-02T11:47:06.204Z,2.48
2017-06-02T11:49:34.428Z,3.04
2017-06-02T11:52:02.807Z,3.06
2017-06-02T11:54:31.038Z,3.10
2017-06-02T11:56:59.347Z,3.32
2017-06-02T11:59:27.583Z,3.22
2017-06-02T12:01:55.802Z,2.68
2017-06-02T12:04:24.394Z,2.90
2017-06-02T12:06:52.613Z,2.76
2017-06-02T12:09:20.842Z,3.54
2017-06-02T12:11:49.070Z,3.02
2017-06-02T12:14:17.309Z,2.58
2017-06-02T12:16:45.535Z,3.60
2017-06-02T12:19:13.771Z,4.54
2017-06-02T12:21:42.106Z,3.84
2017-06-02T12:24:10.351Z,2.96
2017-06-02T12:26:38.658Z,5.24
2017-06-02T12:29:07.034Z,4.74
2017-06-02T12:31:35.275Z,6.84
2017-06-02T12:34:03.587Z,3.66
2017-06-02T12:36:31.814Z,3.54
2017-06-02T12:39:00.043Z,3.88
2017-06-02T12:41:28.276Z,3.06
2017-06-02T12:43:56.578Z,3.30
2017-06-02T12:46:24.824Z,4.82
2017-06-02T12:48:53.055Z,3.42
2017-06-02T12:51:21.292Z,3.24
2017-06-02T12:53:49.518Z,3.18
2017-06-02T12:56:17.063Z,3.88
2017-06-02T12:58:45.292Z,4.06
2017-06-02T13:01:13.522Z,4.78
2017-06-02T13:03:41.754Z,3.70
2017-06-02T13:06:10.012Z,3.38
2017-06-02T13:08:38.312Z,3.40
2017-06-02T13:11:06.538Z,3.62
2017-06-02T13:13:34.766Z,4.20
2017-06-02T13:16:02.990Z,3.70
2017-06-02T13:18:31.311Z,5.20
2017-06-02T13:20:59.542Z,4.52
2017-06-02T13:23:27.774Z,5.22
2017-06-02T13:25:56.006Z,4.32
2017-06-02T13:28:24.316Z,4.24
2017-06-02T13:30:52.588Z,4.40
2017-06-02T13:33:20.823Z,3.74
2017-06-02T13:35:49.046Z,3.30
2017-06-02T13:38:17.311Z,5.00
2017-06-02T13:40:45.586Z,3.84
2017-06-02T13:43:13.851Z,3.74
2017-06-02T13:45:41.304Z,3.34
2017-06-02T13:48:09.586Z,3.90
2017-06-02T13:50:37.811Z,3.14
2017-06-02T13:53:06.043Z,3.96
2017-06-02T13:55:34.276Z,3.94
2017-06-02T13:58:02.503Z,3.74
2017-06-02T14:00:30.750Z,3.66
2017-06-02T14:02:58.980Z,3.62
2017-06-02T14:05:27.214Z,4.32
2017-06-02T14:07:55.440Z,5.58
2017-06-02T14:10:23.767Z,3.66
2017-06-02T14:12:51.991Z,4.16
2017-06-02T14:15:20.235Z,5.56
2017-06-02T14:17:48.460Z,5.32
2017-06-02T14:20:16.758Z,4.94
2017-06-02T14:22:44.994Z,4.56
2017-06-02T14:25:12.455Z,3.82
2017-06-02T14:27:40.685Z,3.70
2017-06-02T14:30:08.926Z,3.08
2017-06-02T14:32:37.165Z,3.92
2017-06-02T14:35:05.482Z,3.56
2017-06-02T14:37:34.483Z,4.00
2017-06-02T14:40:02.758Z,3.50
2017-06-02T14:42:30.995Z,3.88
2017-06-02T14:44:59.226Z,3.26
2017-06-02T14:47:27.463Z,4.02
2017-06-02T14:49:55.791Z,5.34
2017-06-02T14:52:23.260Z,3.78
2017-06-02T14:54:51.487Z,3.80
2017-06-02T14:57:19.746Z,3.50
2017-06-02T14:59:48.040Z,3.82
2017-06-02T15:02:16.258Z,3.80
2017-06-02T15:04:44.487Z,4.16
2017-06-02T15:07:12.719Z,8.28
2017-06-02T15:09:41.038Z,5.12
2017-06-02T15:12:09.317Z,4.80
2017-06-02T15:14:37.552Z,5.16
2017-06-02T15:17:05.774Z,4.04
2017-06-02T15:19:34.011Z,5.00
2017-06-02T15:22:02.313Z,6.32
2017-06-02T15:24:30.650Z,4.28
2017-06-02T15:26:58.955Z,7.42
2017-06-02T15:29:27.211Z,4.72
2017-06-02T15:31:55.432Z,3.76
2017-06-02T15:34:23.681Z,4.60
2017-06-02T15:36:51.963Z,4.22
2017-06-02T15:39:20.247Z,4.18
2017-06-02T15:41:48.467Z,3.24
2017-06-02T15:44:16.711Z,4.00
2017-06-02T15:46:44.930Z,3.56
2017-06-02T15:49:13.235Z,3.56
2017-06-02T15:51:41.462Z,3.24
2017-06-02T15:54:09.715Z,8.82
2017-06-02T15:56:37.947Z,3.64
2017-06-02T15:59:06.237Z,3.70
2017-06-02T16:01:34.511Z,5.38
2017-06-02T16:04:02.762Z,3.60
2017-06-02T16:06:31.065Z,4.02
2017-06-02T16:08:59.291Z,2.94
2017-06-02T16:11:27.520Z,6.66
2017-06-02T16:13:55.787Z,6.42
2017-06-02T16:16:24.063Z,4.74
2017-06-02T16:18:52.296Z,4.42
2017-06-02T16:21:20.527Z,3.70
2017-06-02T16:23:48.763Z,3.78
2017-06-02T16:26:16.993Z,3.62
2017-06-02T16:28:45.355Z,3.22
2017-06-02T16:31:13.579Z,5.20
2017-06-02T16:33:41.806Z,3.84
2017-06-02T16:36:10.042Z,3.32
2017-06-02T16:38:38.271Z,3.42
2017-06-02T16:41:06.606Z,3.98
2017-06-02T16:43:34.882Z,4.94
2017-06-02T16:46:03.102Z,5.76
2017-06-02T16:48:31.331Z,3.58
2017-06-02T16:50:59.563Z,3.96
2017-06-02T16:53:27.874Z,3.20
2017-06-02T16:55:56.158Z,3.34
2017-06-02T16:58:24.387Z,2.98
2017-06-02T17:00:52.615Z,3.16
2017-06-02T17:03:20.851Z,3.36
2017-06-02T17:05:49.078Z,3.00
2017-06-02T17:08:17.320Z,2.70
2017-06-02T17:10:45.542Z,4.20
2017-06-02T17:13:13.786Z,3.66
2017-06-02T17:15:42.011Z,2.38
2017-06-02T17:18:10.247Z,3.32
2017-06-02T17:20:38.478Z,3.06
2017-06-02T17:23:06.715Z,3.50
2017-06-02T17:25:34.939Z,3.10
2017-06-02T17:28:03.162Z,4.14
2017-06-02T17:30:31.400Z,2.96
2017-06-02T17:32:59.626Z,5.08
2017-06-02T17:35:27.867Z,5.94
2017-06-02T17:37:56.099Z,3.82
2017-06-02T17:40:24.340Z,4.08
2017-06-02T17:42:52.562Z,5.88
2017-06-02T17:45:20.797Z,6.34
2017-06-02T17:47:49.119Z,19.18
2017-06-02T17:50:17.397Z,16.56
2017-06-02T17:52:45.662Z,4.58
2017-06-02T17:55:13.919Z,4.36
2017-06-02T17:57:42.146Z,3.80
2017-06-02T18:00:10.372Z,4.32
2017-06-02T18:02:38.606Z,4.24
2017-06-02T18:05:06.826Z,3.30
2017-06-02T18:07:34.304Z,3.72
2017-06-02T18:10:02.539Z,2.80
2017-06-02T18:12:30.775Z,2.60
2017-06-02T18:14:59.006Z,2.70
2017-06-02T18:17:27.244Z,3.08
2017-06-02T18:19:55.471Z,3.64
2017-06-02T18:22:23.706Z,2.80
2017-06-02T18:24:52.023Z,2.68
2017-06-02T18:27:20.247Z,2.26
2017-06-02T18:29:48.570Z,2.68
2017-06-02T18:32:16.797Z,2.76
2017-06-02T18:34:45.030Z,2.62
2017-06-02T18:37:13.291Z,2.30
2017-06-02T18:39:41.526Z,2.86
2017-06-02T18:42:09.756Z,2.64
2017-06-02T18:44:37.990Z,3.50
2017-06-02T18:47:06.214Z,4.54
2017-06-02T18:49:34.453Z,2.88
2017-06-02T18:52:02.747Z,3.10
2017-06-02T18:54:31.018Z,3.60
2017-06-02T18:56:59.290Z,4.52
2017-06-02T18:59:27.528Z,2.32
2017-06-02T19:01:55.842Z,2.90
2017-06-02T19:04:24.086Z,2.46
2017-06-02T19:06:52.315Z,4.98
2017-06-02T19:09:20.543Z,2.94
2017-06-02T19:11:48.771Z,3.00
2017-06-02T19:14:16.995Z,8.10
2017-06-02T19:16:45.282Z,3.22
2017-06-02T19:19:13.512Z,3.44
2017-06-02T19:21:41.743Z,3.08
2017-06-02T19:24:09.975Z,2.76
2017-06-02T19:26:38.290Z,3.22
2017-06-02T19:29:06.516Z,3.62
2017-06-02T19:31:34.843Z,3.50
2017-06-02T19:34:03.107Z,7.52
2017-06-02T19:36:31.347Z,3.94
2017-06-02T19:38:59.662Z,3.52
2017-06-02T19:41:27.902Z,4.20
2017-06-02T19:43:56.127Z,3.52
2017-06-02T19:46:24.388Z,4.30
2017-06-02T19:48:52.662Z,4.50
2017-06-02T19:51:20.886Z,4.88
2017-06-02T19:53:49.137Z,4.52
2017-06-02T19:56:17.360Z,3.92
2017-06-02T19:58:45.666Z,4.26
2017-06-02T20:01:13.898Z,5.50
2017-06-02T20:03:42.129Z,4.60
2017-06-02T20:06:10.387Z,4.82
2017-06-02T20:08:38.619Z,5.20
2017-06-02T20:11:06.847Z,5.40
2017-06-02T20:13:35.091Z,5.54
2017-06-02T20:16:03.319Z,4.32
2017-06-02T20:18:31.551Z,5.50
2017-06-02T20:20:59.787Z,5.34
2017-06-02T20:23:28.030Z,4.98
2017-06-02T20:25:56.274Z,5.26
2017-06-02T20:28:24.511Z,5.98
2017-06-02T20:30:52.819Z,5.64
2017-06-02T20:33:21.058Z,5.36
2017-06-02T20:35:49.279Z,4.70
2017-06-02T20:38:17.519Z,5.50
2017-06-02T20:40:45.830Z,6.54
2017-06-02T20:43:14.107Z,6.78
2017-06-02T20:45:42.350Z,5.60
2017-06-02T20:48:10.659Z,5.90
2017-06-02T20:50:38.895Z,6.42
2017-06-02T20:53:07.122Z,6.20
2017-06-02T20:55:35.366Z,6.54
2017-06-02T20:58:03.582Z,5.92
2017-06-02T21:00:31.819Z,7.10
2017-06-02T21:03:00.078Z,7.18
2017-06-02T21:05:28.307Z,8.04
2017-06-02T21:07:56.539Z,7.26
2017-06-02T21:10:24.823Z,7.54
2017-06-02T21:12:53.110Z,7.08
2017-06-02T21:15:21.335Z,8.24
2017-06-02T21:17:49.654Z,8.08
2017-06-02T21:20:17.890Z,6.72
2017-06-02T21:22:46.109Z,7.84
2017-06-02T21:25:14.365Z,6.72
2017-06-02T21:27:42.582Z,6.82
2017-06-02T21:30:10.823Z,7.16
2017-06-02T21:32:39.098Z,6.98
2017-06-02T21:35:07.337Z,5.48
2017-06-02T21:37:35.569Z,6.68
2017-06-02T21:40:03.811Z,7.02
2017-06-02T21:42:32.038Z,9.50
2017-06-02T21:45:00.267Z,9.06
2017-06-02T21:47:28.511Z,7.64
2017-06-02T21:49:56.814Z,6.68
2017-06-02T21:52:25.059Z,7.88
2017-06-02T21:54:53.288Z,6.94
2017-06-02T21:57:21.529Z,7.44
2017-06-02T22:03:13.183Z,7.30
2017-06-02T22:05:40.642Z,6.80
2017-06-02T22:08:08.094Z,6.93
2017-06-02T22:10:35.574Z,9.10
2017-06-02T22:13:03.826Z,9.57
2017-06-02T22:15:31.289Z,8.67
2017-06-02T22:17:58.843Z,8.90
2017-06-02T22:20:26.397Z,9.33
2017-06-02T22:22:53.856Z,9.50
2017-06-02T22:25:21.315Z,8.40
2017-06-02T22:27:48.766Z,8.77
2017-06-02T22:30:16.223Z,9.70
2017-06-02T22:32:43.678Z,7.10
2017-06-02T22:35:11.139Z,7.43
2017-06-02T22:37:38.586Z,7.53
2017-06-02T22:40:06.151Z,6.67
2017-06-02T22:42:34.375Z,7.57
2017-06-02T22:45:01.829Z,8.57
2017-06-02T22:47:29.347Z,7.97
2017-06-02T22:49:56.798Z,7.53
2017-06-02T22:52:24.346Z,10.10
2017-06-02T22:54:51.803Z,9.53
2017-06-02T22:57:19.364Z,7.80
2017-06-02T22:59:46.818Z,8.10
2017-06-02T23:02:14.283Z,7.50
2017-06-02T23:04:41.744Z,8.87
2017-06-02T23:07:09.307Z,8.87
2017-06-02T23:09:37.540Z,9.10
2017-06-02T23:12:05.051Z,8.00
2017-06-02T23:14:33.294Z,9.63
2017-06-02T23:17:00.763Z,10.27
2017-06-02T23:19:28.319Z,9.10
2017-06-02T23:21:55.773Z,7.20
2017-06-02T23:24:23.335Z,9.63
2017-06-02T23:26:50.894Z,9.70
2017-06-02T23:29:18.448Z,9.77
2017-06-02T23:31:45.907Z,9.50
2017-06-02T23:34:13.363Z,9.43
2017-06-02T23:36:40.820Z,10.30
2017-06-02T23:39:08.376Z,9.90
2017-06-02T23:41:35.930Z,9.57
2017-06-02T23:44:03.392Z,9.20
2017-06-02T23:46:30.948Z,9.60
2017-06-02T23:48:58.408Z,11.43
2017-06-02T23:51:25.870Z,13.53
2017-06-02T23:53:54.111Z,13.20
2017-06-02T23:56:21.570Z,12.10
2017-06-02T23:58:49.038Z,12.00
